Time;durP1;ratioP1;P1;durP2;ratioP2;P2;SDS_P1;SDS_P2;PMS_P1;PMS_P2;Temp;Humidity;BMP_temperature;BMP_pressure;BME280_temperature;BME280_humidity;BME280_pressure;Samples;Min_cycle;Max_cycle;Signal;HPM_P1;HPM_P2
2023/05/28 00:01:08;;;;;;;22.85;6.30;;;10.90;99.90;;;;;;4998102;28;20042;-91
2023/05/28 00:03:37;;;;;;;14.88;5.22;;;10.90;99.90;;;;;;4996449;28;20080;-92
2023/05/28 00:06:27;;;;;;;17.27;6.30;;;10.90;99.90;;;;;;5018713;28;20088;-90
2023/05/28 00:08:53;;;;;;;22.48;6.30;;;11.00;99.90;;;;;;5017530;28;20067;-91
2023/05/28 00:11:20;;;;;;;17.38;5.82;;;11.00;99.90;;;;;;5005046;28;20486;-92
2023/05/28 00:13:45;;;;;;;19.02;6.10;;;11.20;99.90;;;;;;5018852;28;20400;-91
2023/05/28 00:16:14;;;;;;;18.75;5.80;;;11.00;99.90;;;;;;5017546;28;20053;-91
2023/05/28 00:18:40;;;;;;;21.25;5.63;;;11.00;99.90;;;;;;5018215;28;20048;-91
2023/05/28 00:21:12;;;;;;;24.90;5.95;;;11.10;99.90;;;;;;5005394;28;20049;-91
2023/05/28 00:23:46;;;;;;;21.50;6.25;;;11.10;99.90;;;;;;5017079;28;20047;-91
2023/05/28 00:26:20;;;;;;;21.17;6.28;;;11.10;99.90;;;;;;5004204;28;20072;-92
2023/05/28 00:28:46;;;;;;;20.40;5.85;;;11.20;99.90;;;;;;5018034;28;20087;-92
2023/05/28 00:31:24;;;;;;;21.15;5.90;;;11.10;99.90;;;;;;5016921;28;20049;-91
2023/05/28 00:33:53;;;;;;;17.85;5.82;;;11.20;99.90;;;;;;5017509;28;20167;-91
2023/05/28 00:36:30;;;;;;;25.83;6.53;;;11.20;99.90;;;;;;5009721;28;20883;-91
2023/05/28 00:39:04;;;;;;;22.77;6.05;;;11.20;99.90;;;;;;4998162;28;20049;-92
2023/05/28 00:41:31;;;;;;;19.00;5.95;;;11.20;99.90;;;;;;5006914;28;20041;-91
2023/05/28 00:43:57;;;;;;;21.38;6.20;;;11.20;99.90;;;;;;5017512;28;20580;-91
2023/05/28 00:46:30;;;;;;;20.33;5.88;;;11.20;99.90;;;;;;5017490;28;20488;-92
2023/05/28 00:48:55;;;;;;;19.80;5.80;;;11.10;99.90;;;;;;5017313;28;20519;-92
2023/05/28 00:51:31;;;;;;;19.65;5.70;;;11.10;99.90;;;;;;5016361;28;20041;-92
2023/05/28 00:54:01;;;;;;;23.38;6.00;;;11.10;99.90;;;;;;5017128;28;20048;-92
2023/05/28 00:56:31;;;;;;;20.65;6.22;;;11.10;99.90;;;;;;5017880;28;20151;-91
2023/05/28 00:59:00;;;;;;;22.77;7.00;;;11.10;99.90;;;;;;5016741;28;20480;-91
2023/05/28 01:01:29;;;;;;;21.02;6.68;;;11.10;99.90;;;;;;5004566;28;20103;-91
2023/05/28 01:04:01;;;;;;;20.00;6.57;;;11.10;99.90;;;;;;4990646;28;20046;-92
2023/05/28 01:06:38;;;;;;;18.52;5.93;;;11.10;99.90;;;;;;4995558;28;20049;-92
2023/05/28 01:09:15;;;;;;;24.42;6.70;;;11.10;99.90;;;;;;4978390;28;20034;-91
2023/05/28 01:11:43;;;;;;;19.23;6.00;;;11.10;99.90;;;;;;4990722;28;20037;-92
2023/05/28 01:14:12;;;;;;;22.75;6.03;;;11.10;99.90;;;;;;4989894;28;20079;-92
2023/05/28 01:16:49;;;;;;;24.77;6.28;;;11.10;99.90;;;;;;4997087;28;20187;-92
2023/05/28 01:19:21;;;;;;;21.75;6.88;;;11.10;99.90;;;;;;4983276;28;20034;-92
2023/05/28 01:21:51;;;;;;;19.75;6.30;;;11.10;99.90;;;;;;4997726;28;20056;-91
2023/05/28 01:24:17;;;;;;;16.42;6.10;;;11.20;99.90;;;;;;4996321;28;20049;-91
2023/05/28 01:26:43;;;;;;;19.77;6.35;;;11.10;99.90;;;;;;4997089;28;20443;-92
2023/05/28 01:29:14;;;;;;;20.60;6.00;;;11.20;99.90;;;;;;4996355;28;20400;-91
2023/05/28 01:31:43;;;;;;;22.50;6.60;;;11.20;99.90;;;;;;4996838;28;20136;-90
2023/05/28 01:34:10;;;;;;;26.20;6.80;;;11.20;99.90;;;;;;4995574;28;20413;-90
2023/05/28 01:36:44;;;;;;;26.83;6.57;;;11.20;99.90;;;;;;4988511;28;20128;-91
2023/05/28 01:39:15;;;;;;;19.73;6.80;;;11.20;99.90;;;;;;4993393;28;20041;-90
2023/05/28 01:41:42;;;;;;;22.23;6.22;;;11.20;99.90;;;;;;4996833;28;20068;-91
2023/05/28 01:44:14;;;;;;;24.38;6.70;;;11.20;99.90;;;;;;4996438;28;20045;-90
2023/05/28 01:46:42;;;;;;;26.80;6.88;;;11.60;99.90;;;;;;4996254;28;20140;-91
2023/05/28 01:49:09;;;;;;;24.83;6.85;;;11.10;99.90;;;;;;4984284;28;20561;-90
2023/05/28 01:51:35;;;;;;;20.52;6.40;;;11.10;99.90;;;;;;4996704;28;20061;-91
2023/05/28 01:54:04;;;;;;;17.38;6.07;;;11.00;99.90;;;;;;4995564;28;20037;-91
2023/05/28 01:56:39;;;;;;;19.67;7.22;;;11.00;99.90;;;;;;4996301;28;20120;-89
2023/05/28 01:59:10;;;;;;;26.88;7.43;;;11.00;99.90;;;;;;4985029;28;20088;-90
2023/05/28 02:01:39;;;;;;;18.05;6.80;;;11.00;99.90;;;;;;4995432;28;20045;-91
2023/05/28 02:04:11;;;;;;;22.13;6.65;;;11.00;99.90;;;;;;4996327;28;20139;-90
2023/05/28 02:06:45;;;;;;;19.67;6.18;;;11.00;99.90;;;;;;4995908;28;20038;-91
2023/05/28 02:09:11;;;;;;;22.27;7.03;;;10.90;99.90;;;;;;4984913;28;20470;-90
2023/05/28 02:11:39;;;;;;;25.83;7.13;;;11.00;99.90;;;;;;4990669;28;20058;-92
2023/05/28 02:14:05;;;;;;;24.40;7.30;;;10.90;99.90;;;;;;4988166;28;20144;-91
2023/05/28 02:16:31;;;;;;;16.35;6.60;;;10.90;99.90;;;;;;4983399;28;20033;-90
2023/05/28 02:18:58;;;;;;;14.55;6.53;;;10.80;99.90;;;;;;4995209;28;20128;-90
2023/05/28 02:21:28;;;;;;;22.63;6.85;;;10.80;99.90;;;;;;4984213;28;20172;-90
2023/05/28 02:24:02;;;;;;;18.10;6.72;;;10.80;99.90;;;;;;4995279;28;20132;-90
2023/05/28 02:26:33;;;;;;;21.23;7.57;;;10.80;99.90;;;;;;4996423;28;20042;-91
2023/05/28 02:29:03;;;;;;;22.55;7.15;;;10.50;99.90;;;;;;4983024;28;20042;-90
2023/05/28 02:31:44;;;;;;;22.67;6.22;;;10.80;99.90;;;;;;4983224;28;20052;-90
2023/05/28 02:34:10;;;;;;;18.88;5.55;;;10.80;99.90;;;;;;4982933;28;20457;-90
2023/05/28 02:36:36;;;;;;;17.92;6.22;;;10.80;99.90;;;;;;4995336;28;20076;-89
2023/05/28 02:39:05;;;;;;;27.85;6.47;;;10.80;99.90;;;;;;4994746;28;20487;-89
2023/05/28 02:41:39;;;;;;;22.17;6.43;;;10.80;99.90;;;;;;4995516;28;20049;-89
2023/05/28 02:44:11;;;;;;;21.42;7.07;;;10.80;99.90;;;;;;4995087;28;20037;-89
2023/05/28 02:46:36;;;;;;;26.40;6.72;;;10.80;99.90;;;;;;4995664;28;20403;-90
2023/05/28 02:49:03;;;;;;;21.67;6.10;;;10.70;99.90;;;;;;4996179;28;20045;-89
2023/05/28 02:51:28;;;;;;;22.83;6.50;;;10.70;99.90;;;;;;4994622;28;20041;-89
2023/05/28 02:53:57;;;;;;;22.63;6.57;;;10.70;99.90;;;;;;4990245;28;20401;-90
2023/05/28 02:56:29;;;;;;;18.25;6.25;;;10.70;99.90;;;;;;4987714;28;20160;-90
2023/05/28 02:58:57;;;;;;;22.58;6.82;;;10.60;99.90;;;;;;4994596;28;20037;-89
2023/05/28 03:01:23;;;;;;;21.67;6.72;;;10.60;99.90;;;;;;4995188;28;20045;-89
2023/05/28 03:04:15;;;;;;;20.38;6.90;;;10.50;99.90;;;;;;4994117;28;20371;-90
2023/05/28 03:06:41;;;;;;;24.80;7.07;;;10.50;99.90;;;;;;4994734;28;20049;-90
2023/05/28 03:09:07;;;;;;;18.88;6.47;;;10.50;99.90;;;;;;4994771;28;20036;-88
2023/05/28 03:11:32;;;;;;;35.20;6.85;;;10.50;99.90;;;;;;4994157;28;20128;-90
2023/05/28 03:14:06;;;;;;;23.77;6.78;;;10.70;99.90;;;;;;4995631;28;20132;-90
2023/05/28 03:16:32;;;;;;;21.27;6.47;;;10.40;99.90;;;;;;4995358;28;20049;-89
2023/05/28 03:19:06;;;;;;;19.33;6.97;;;10.40;99.90;;;;;;4994548;28;20088;-89
2023/05/28 03:21:38;;;;;;;19.83;7.20;;;10.40;99.90;;;;;;4995188;28;20042;-91
2023/05/28 03:24:15;;;;;;;18.85;6.90;;;10.40;99.90;;;;;;4994381;28;20050;-90
2023/05/28 03:26:44;;;;;;;23.30;6.85;;;10.40;99.90;;;;;;4994026;28;20081;-89
2023/05/28 03:29:16;;;;;;;20.08;7.28;;;10.40;99.90;;;;;;4994366;28;20052;-91
2023/05/28 03:31:46;;;;;;;21.38;6.82;;;10.40;99.90;;;;;;4986654;28;20139;-91
2023/05/28 03:34:12;;;;;;;18.70;6.95;;;10.40;99.90;;;;;;4988003;28;20042;-91
2023/05/28 03:36:46;;;;;;;19.50;6.53;;;10.40;99.90;;;;;;4984832;28;20567;-91
2023/05/28 03:39:12;;;;;;;22.08;6.82;;;10.40;99.90;;;;;;4993369;28;20073;-89
2023/05/28 03:41:38;;;;;;;20.52;7.00;;;10.40;99.90;;;;;;4994899;28;20045;-90
2023/05/28 03:44:05;;;;;;;21.17;6.63;;;10.30;99.90;;;;;;4995691;28;20049;-90
2023/05/28 03:46:31;;;;;;;23.15;7.70;;;10.40;99.90;;;;;;4994524;28;20049;-90
2023/05/28 03:49:04;;;;;;;23.20;6.85;;;10.30;99.90;;;;;;4995569;28;20111;-90
2023/05/28 03:51:38;;;;;;;;;;;10.40;99.90;;;;;;4995047;28;20129;-90
2023/05/28 03:54:05;;;;;;;24.60;6.80;;;10.30;99.90;;;;;;4993816;28;20327;-90
2023/05/28 03:56:33;;;;;;;27.58;7.50;;;10.40;99.90;;;;;;4995016;28;20457;-91
2023/05/28 03:58:59;;;;;;;21.35;7.10;;;10.40;99.90;;;;;;4977199;28;20037;-90
2023/05/28 04:01:25;;;;;;;20.10;6.95;;;10.40;99.90;;;;;;4988183;28;20049;-90
2023/05/28 04:03:56;;;;;;;20.15;6.47;;;10.40;99.90;;;;;;4994895;28;20128;-91
2023/05/28 04:06:23;;;;;;;20.95;6.65;;;10.40;99.90;;;;;;4982327;28;20057;-91
2023/05/28 04:08:52;;;;;;;28.52;7.40;;;10.30;99.90;;;;;;4994878;28;20486;-91
2023/05/28 04:11:24;;;;;;;22.40;7.15;;;10.40;99.90;;;;;;4995917;28;20436;-91
2023/05/28 04:13:53;;;;;;;21.20;6.60;;;10.40;99.90;;;;;;4998842;28;20050;-91
2023/05/28 04:16:22;;;;;;;17.38;6.45;;;10.30;99.90;;;;;;4997948;28;20041;-90
2023/05/28 04:18:49;;;;;;;24.05;7.03;;;10.40;99.90;;;;;;4990198;28;20053;-90
2023/05/28 04:21:15;;;;;;;21.00;6.30;;;10.40;99.90;;;;;;4993894;28;20124;-90
2023/05/28 04:23:53;;;;;;;22.13;7.13;;;10.40;99.90;;;;;;4998882;28;20538;-91
2023/05/28 04:26:22;;;;;;;26.88;6.88;;;10.40;99.90;;;;;;4998895;28;20041;-90
2023/05/28 04:28:48;;;;;;;22.67;6.05;;;10.50;99.90;;;;;;4997481;28;20083;-89
2023/05/28 04:35:22;;;;;;;21.63;6.35;;;10.40;99.90;;;;;;5045850;22;20148;-91
2023/05/28 04:37:50;;;;;;;24.30;7.15;;;10.60;99.90;;;;;;4997377;28;20045;-91
2023/05/28 04:40:17;;;;;;;20.25;6.65;;;10.70;99.90;;;;;;5007683;23;20154;-91
2023/05/28 04:42:43;;;;;;;22.13;6.85;;;10.80;99.90;;;;;;5011124;28;20041;-90
2023/05/28 04:45:10;;;;;;;20.58;7.20;;;10.80;99.90;;;;;;5011587;28;20496;-90
2023/05/28 04:47:36;;;;;;;22.38;6.75;;;10.80;99.90;;;;;;5017186;28;20098;-91
2023/05/28 04:50:04;;;;;;;19.60;5.80;;;10.90;99.90;;;;;;5016745;28;20037;-92
2023/05/28 04:52:32;;;;;;;22.98;6.00;;;10.90;99.90;;;;;;5005097;28;20072;-91
2023/05/28 04:55:16;;;;;;;19.55;6.78;;;11.00;99.90;;;;;;5016732;28;20108;-90
2023/05/28 04:58:03;;;;;;;17.15;5.95;;;11.00;99.90;;;;;;5007163;28;20052;-91
2023/05/28 05:04:08;;;;;;;;;;;;;;;;;;;;;
2023/05/28 05:06:47;;;;;;;19.05;6.30;;;11.10;99.90;;;;;;5077140;22;20603;-91
2023/05/28 05:09:12;;;;;;;27.83;6.55;;;11.10;99.90;;;;;;4996520;28;20121;-90
2023/05/28 05:11:59;;;;;;;24.90;6.65;;;11.10;99.90;;;;;;4998819;28;20170;-90
2023/05/28 05:14:25;;;;;;;19.30;5.80;;;11.20;99.90;;;;;;5002584;28;20545;-89
2023/05/28 05:16:57;;;;;;;19.42;6.00;;;11.20;99.90;;;;;;4997643;28;20129;-89
2023/05/28 05:19:31;;;;;;;16.98;5.78;;;11.30;99.90;;;;;;4992618;28;20042;-89
2023/05/28 05:22:00;;;;;;;22.10;6.15;;;11.30;99.90;;;;;;4996570;28;20045;-90
2023/05/28 05:24:26;;;;;;;22.02;5.65;;;11.40;99.90;;;;;;4995860;28;20041;-90
2023/05/28 05:26:51;;;;;;;17.85;5.40;;;11.50;99.90;;;;;;4996993;28;20060;-91
2023/05/28 05:29:17;;;;;;;25.17;6.18;;;11.60;99.90;;;;;;4997188;28;20072;-91
2023/05/28 05:31:43;;;;;;;21.73;6.13;;;11.80;99.90;;;;;;5005678;28;20473;-90
2023/05/28 05:34:08;;;;;;;22.42;5.80;;;11.90;99.90;;;;;;5002548;28;20045;-91
2023/05/28 05:36:35;;;;;;;17.38;5.78;;;12.00;99.90;;;;;;5016231;28;20044;-91
2023/05/28 05:39:21;;;;;;;18.42;5.78;;;12.10;99.90;;;;;;5000845;28;20068;-91
2023/05/28 05:41:47;;;;;;;20.02;5.80;;;12.50;99.90;;;;;;4996211;28;20052;-91
2023/05/28 05:44:13;;;;;;;19.80;5.38;;;12.30;99.90;;;;;;4997239;28;20033;-91
2023/05/28 05:46:39;;;;;;;19.27;5.47;;;12.40;99.90;;;;;;4996591;28;20115;-91
2023/05/28 05:49:26;;;;;;;19.05;5.43;;;12.50;99.90;;;;;;5006034;22;20136;-91
2023/05/28 05:52:42;;;;;;;16.63;5.10;;;12.60;99.90;;;;;;4940100;28;20057;-91
2023/05/28 05:57:43;;;;;;;17.42;5.45;;;12.60;99.90;;;;;;4990539;22;20412;-91
2023/05/28 06:01:00;;;;;;;13.32;5.47;;;13.00;99.90;;;;;;4992702;28;20492;-91
2023/05/28 06:08:46;;;;;;;17.67;5.45;;;13.20;99.90;;;;;;5018542;28;20073;-91
2023/05/28 06:10:42;;;;;;;17.55;5.68;;;13.50;99.90;;;;;;5009244;28;20053;-90
2023/05/28 06:13:17;;;;;;;20.65;5.05;;;13.50;99.90;;;;;;5016423;28;20368;-90
2023/05/28 06:16:03;;;;;;;17.00;5.93;;;13.60;99.90;;;;;;5006556;28;20039;-91
2023/05/28 06:18:30;;;;;;;17.42;5.72;;;13.70;99.90;;;;;;5016198;28;20053;-90
2023/05/28 06:21:36;;;;;;;16.88;5.32;;;13.80;99.90;;;;;;5012817;28;20076;-89
2023/05/28 06:24:08;;;;;;;19.67;6.07;;;13.90;99.90;;;;;;5008452;28;20392;-91
2023/05/28 06:27:03;;;;;;;14.05;5.45;;;14.00;99.90;;;;;;5001374;28;20444;-90
2023/05/28 06:29:41;;;;;;;;;;;;;;;;;;;;;
2023/05/28 06:38:06;;;;;;;17.55;4.82;;;14.30;99.90;;;;;;5051839;28;20048;-91
2023/05/28 06:40:34;;;;;;;15.98;4.93;;;14.40;99.90;;;;;;5029874;28;20411;-90
2023/05/28 06:43:16;;;;;;;;;;;;;;;;;;;;;
2023/05/28 06:46:12;;;;;;;11.88;3.97;;;14.50;99.90;;;;;;5032259;28;20488;-91
2023/05/28 06:49:06;;;;;;;18.10;4.97;;;13.70;99.90;;;;;;5037906;28;20112;-90
2023/05/28 06:52:25;;;;;;;16.88;5.00;;;14.70;99.90;;;;;;5026973;28;20535;-93
2023/05/28 06:55:27;;;;;;;;;;;;;;;;;;;;;
2023/05/28 06:59:10;;;;;;;16.25;4.82;;;15.20;99.90;;;;;;5003761;28;20120;-91
2023/05/28 07:08:03;;;;;;;15.85;4.38;;;15.00;99.90;;;;;;5099039;22;20045;-92
2023/05/28 07:10:53;;;;;;;14.52;4.28;;;15.10;99.90;;;;;;4960095;28;20113;-91
2023/05/28 07:13:25;;;;;;;15.30;4.68;;;15.20;99.90;;;;;;5009534;28;20045;-91
2023/05/28 07:16:00;;;;;;;13.25;3.90;;;15.30;99.90;;;;;;5007164;28;20110;-94
2023/05/28 07:18:47;;;;;;;14.50;3.83;;;15.50;99.90;;;;;;5021844;22;20098;-93
2023/05/28 07:21:16;;;;;;;25.85;4.22;;;15.60;99.90;;;;;;5014822;28;20049;-92
2023/05/28 07:23:42;;;;;;;11.38;3.30;;;15.80;99.90;;;;;;4995588;28;20073;-92
2023/05/28 07:26:45;;;;;;;11.45;3.72;;;15.90;99.90;;;;;;4997402;28;20133;-92
2023/05/28 07:29:45;;;;;;;15.32;3.90;;;16.00;99.90;;;;;;4992100;28;20159;-94
2023/05/28 07:35:50;;;;;;;18.25;4.15;;;15.90;99.90;;;;;;5036452;22;20096;-93
2023/05/28 07:39:07;;;;;;;7.93;3.00;;;16.10;99.90;;;;;;5011954;28;20435;-94
2023/05/28 07:44:57;;;;;;;8.88;3.20;;;16.30;99.90;;;;;;5262950;22;20057;-96
2023/05/28 07:47:23;;;;;;;11.10;3.45;;;16.40;99.90;;;;;;4996469;28;20050;-96
2023/05/28 07:49:48;;;;;;;8.88;3.25;;;16.50;99.90;;;;;;4987561;28;20584;-96
2023/05/28 07:52:14;;;;;;;14.15;3.58;;;16.60;99.90;;;;;;4996556;28;20045;-96
2023/05/28 07:54:40;;;;;;;32.28;17.83;;;16.60;99.90;;;;;;5002814;28;20049;-96
2023/05/28 07:57:06;;;;;;;7.93;3.67;;;16.70;99.90;;;;;;5003767;28;20033;-96
2023/05/28 07:59:33;;;;;;;11.52;3.83;;;16.80;99.90;;;;;;5001827;28;20481;-96
2023/05/28 08:01:59;;;;;;;10.35;3.92;;;16.90;99.90;;;;;;4990965;28;20037;-96
2023/05/28 08:04:25;;;;;;;9.38;3.50;;;17.10;99.90;;;;;;5000854;28;20067;-96
2023/05/28 08:06:51;;;;;;;10.63;3.97;;;17.10;99.90;;;;;;4996723;28;20088;-96
2023/05/28 08:09:17;;;;;;;8.57;3.45;;;17.30;99.90;;;;;;4992053;28;20112;-96
2023/05/28 08:11:43;;;;;;;8.05;3.45;;;17.30;99.90;;;;;;5000667;28;20037;-96
2023/05/28 08:14:09;;;;;;;12.38;3.78;;;17.30;99.90;;;;;;5001452;28;20123;-96
2023/05/28 08:16:36;;;;;;;7.68;3.28;;;17.40;99.90;;;;;;4999596;28;20083;-96
2023/05/28 08:19:03;;;;;;;7.57;3.42;;;17.40;99.90;;;;;;5003604;28;20046;-96
2023/05/28 08:21:28;;;;;;;9.45;3.75;;;17.20;99.90;;;;;;5000888;28;20045;-95
2023/05/28 08:23:55;;;;;;;9.38;3.72;;;17.40;99.90;;;;;;4997397;28;20446;-96
2023/05/28 08:26:21;;;;;;;11.95;3.97;;;17.40;99.90;;;;;;4997519;28;20053;-94
2023/05/28 08:28:48;;;;;;;9.98;4.35;;;17.50;99.90;;;;;;5001969;28;20088;-96
2023/05/28 08:31:14;;;;;;;12.30;5.05;;;17.60;99.90;;;;;;4989506;28;20073;-94
2023/05/28 08:33:39;;;;;;;8.63;3.47;;;17.70;99.90;;;;;;5010869;28;20058;-94
2023/05/28 08:36:06;;;;;;;11.50;4.10;;;17.80;99.90;;;;;;4995697;28;20491;-95
2023/05/28 08:38:32;;;;;;;9.02;3.83;;;17.90;99.90;;;;;;4997518;28;20037;-94
2023/05/28 08:40:59;;;;;;;11.73;4.88;;;18.00;99.90;;;;;;4993797;28;20042;-94
2023/05/28 08:43:25;;;;;;;11.10;4.38;;;18.00;99.90;;;;;;4988602;28;20057;-93
2023/05/28 08:45:52;;;;;;;10.98;4.47;;;18.10;99.90;;;;;;4985782;28;20049;-93
2023/05/28 08:48:18;;;;;;;14.35;5.10;;;18.10;99.90;;;;;;4994593;28;20053;-93
2023/05/28 08:50:53;;;;;;;9.32;4.20;;;18.10;99.90;;;;;;4995967;28;20422;-93
2023/05/28 08:53:22;;;;;;;9.80;4.60;;;18.20;99.90;;;;;;4996251;28;20485;-94
2023/05/28 08:55:48;;;;;;;10.35;4.47;;;18.30;99.90;;;;;;4996258;28;20029;-92
2023/05/28 08:58:15;;;;;;;10.85;4.85;;;18.30;99.90;;;;;;4996899;28;20136;-92
2023/05/28 09:00:42;;;;;;;11.98;4.85;;;18.30;99.90;;;;;;4997353;28;20045;-91
2023/05/28 09:03:08;;;;;;;15.38;4.72;;;18.40;99.90;;;;;;4997032;28;20124;-92
2023/05/28 09:05:36;;;;;;;12.00;5.00;;;18.50;99.90;;;;;;4996894;28;20125;-91
2023/05/28 09:08:09;;;;;;;10.18;5.00;;;18.50;99.90;;;;;;4995023;28;20053;-91
2023/05/28 09:10:37;;;;;;;12.65;5.30;;;18.60;99.90;;;;;;4996196;28;20037;-91
2023/05/28 09:13:04;;;;;;;12.05;5.15;;;18.70;99.90;;;;;;4996359;28;20041;-92
2023/05/28 09:15:30;;;;;;;11.65;4.60;;;18.70;99.90;;;;;;4991347;28;20041;-91
2023/05/28 09:17:59;;;;;;;9.73;4.35;;;18.80;99.90;;;;;;4996281;28;20037;-91
2023/05/28 09:20:25;;;;;;;14.02;5.13;;;18.80;99.90;;;;;;4997077;28;20042;-92
2023/05/28 09:23:02;;;;;;;15.80;5.10;;;18.90;99.90;;;;;;4997512;28;20575;-91
2023/05/28 09:25:28;;;;;;;11.07;4.68;;;19.10;99.90;;;;;;4987594;28;20494;-91
2023/05/28 09:27:56;;;;;;;11.32;4.78;;;19.20;99.90;;;;;;4994880;28;20041;-91
2023/05/28 09:30:23;;;;;;;12.20;5.05;;;19.20;99.90;;;;;;4993996;28;20054;-92
2023/05/28 09:33:02;;;;;;;13.55;4.57;;;19.40;99.90;;;;;;4996134;28;20053;-91
2023/05/28 09:35:30;;;;;;;11.93;4.28;;;19.50;99.90;;;;;;4993401;28;20045;-91
2023/05/28 09:38:07;;;;;;;13.18;5.85;;;19.70;99.90;;;;;;4981352;28;20050;-91
2023/05/28 09:40:42;;;;;;;10.90;4.75;;;19.80;99.90;;;;;;5007083;28;20049;-92
2023/05/28 09:43:10;;;;;;;9.90;5.53;;;19.80;99.90;;;;;;4997332;28;20045;-92
2023/05/28 09:45:36;;;;;;;10.43;5.18;;;19.90;99.90;;;;;;4995843;28;20118;-92
2023/05/28 09:48:03;;;;;;;11.88;5.45;;;19.90;99.90;;;;;;4996385;28;20059;-95
2023/05/28 09:50:30;;;;;;;9.55;5.35;;;19.80;99.90;;;;;;4996228;28;20121;-92
2023/05/28 09:52:58;;;;;;;12.10;5.00;;;19.80;99.90;;;;;;4996880;28;20141;-93
2023/05/28 09:55:26;;;;;;;13.65;6.00;;;19.90;99.90;;;;;;4991998;28;20128;-92
2023/05/28 09:58:08;;;;;;;10.05;5.32;;;19.90;99.70;;;;;;4996526;28;20124;-94
2023/05/28 10:00:38;;;;;;;10.98;6.00;;;19.90;98.70;;;;;;4987202;28;20041;-96
2023/05/28 10:03:10;;;;;;;9.68;5.43;;;19.90;98.10;;;;;;4987418;28;20393;-91
2023/05/28 10:05:38;;;;;;;11.77;5.53;;;19.80;97.60;;;;;;4996305;28;20045;-92
2023/05/28 10:08:48;;;;;;;15.27;5.85;;;19.90;97.60;;;;;;4999324;28;20068;-93
2023/05/28 10:11:12;;;;;;;11.82;6.30;;;19.90;97.40;;;;;;5008999;28;20111;-95
2023/05/28 10:13:40;;;;;;;12.02;6.28;;;20.10;95.90;;;;;;4994801;28;20103;-95
2023/05/28 10:16:06;;;;;;;14.85;6.00;;;20.00;96.00;;;;;;4993505;28;20046;-91
2023/05/28 10:18:32;;;;;;;11.30;5.05;;;20.00;95.20;;;;;;4993824;28;20454;-93
2023/05/28 10:20:59;;;;;;;16.92;5.80;;;20.10;95.30;;;;;;4994068;28;20406;-91
2023/05/28 10:23:25;;;;;;;13.48;5.35;;;20.10;95.00;;;;;;4996214;28;20171;-91
2023/05/28 10:25:51;;;;;;;9.73;5.20;;;20.10;94.80;;;;;;4986932;28;20046;-91
2023/05/28 10:28:20;;;;;;;10.77;5.72;;;20.20;94.40;;;;;;4989155;28;20053;-93
2023/05/28 10:31:03;;;;;;;9.10;4.95;;;20.20;93.10;;;;;;4993941;28;20053;-95
2023/05/28 10:33:43;;;;;;;14.02;5.10;;;20.20;91.90;;;;;;4991548;28;20034;-93
2023/05/28 10:36:19;;;;;;;8.30;4.10;;;20.20;90.30;;;;;;4996863;28;20144;-96
2023/05/28 10:38:57;;;;;;;7.00;2.97;;;20.20;90.30;;;;;;5003998;28;20088;-95
2023/05/28 10:41:24;;;;;;;6.45;3.00;;;20.30;89.10;;;;;;4998552;28;21017;-91
2023/05/28 10:43:53;;;;;;;8.10;3.05;;;20.30;87.70;;;;;;4990729;28;20065;-94
2023/05/28 10:46:37;;;;;;;9.55;2.97;;;20.30;87.10;;;;;;4975739;28;20485;-93
2023/05/28 10:49:11;;;;;;;5.90;2.50;;;20.40;89.80;;;;;;4975722;28;20468;-91
2023/05/28 10:52:04;;;;;;;9.63;2.50;;;20.50;89.90;;;;;;4972752;28;20054;-91
2023/05/28 10:54:35;;;;;;;8.18;2.65;;;20.70;90.00;;;;;;4973226;28;20053;-91
2023/05/28 10:57:10;;;;;;;5.68;2.25;;;20.50;88.30;;;;;;4972050;28;20112;-91
2023/05/28 10:59:51;;;;;;;8.20;2.35;;;20.70;86.00;;;;;;4976356;28;20061;-91
2023/05/28 11:02:21;;;;;;;7.63;2.42;;;20.70;83.30;;;;;;4969669;28;20858;-92
2023/05/28 11:04:52;;;;;;;12.05;2.92;;;20.60;84.30;;;;;;4976393;28;20045;-91
2023/05/28 11:07:20;;;;;;;6.95;2.55;;;20.70;85.70;;;;;;4973165;28;20049;-92
2023/05/28 11:09:56;;;;;;;10.52;2.70;;;20.80;87.60;;;;;;4976842;28;20129;-93
2023/05/28 11:12:22;;;;;;;6.68;2.28;;;20.80;89.00;;;;;;4968807;28;20420;-91
2023/05/28 11:14:49;;;;;;;8.60;2.40;;;20.90;88.90;;;;;;4975789;28;20121;-91
2023/05/28 11:17:15;;;;;;;7.22;2.47;;;21.00;90.10;;;;;;4975180;28;20052;-91
2023/05/28 11:19:43;;;;;;;6.82;2.40;;;21.00;90.70;;;;;;4968800;28;20042;-92
2023/05/28 11:22:10;;;;;;;10.98;3.13;;;21.00;91.20;;;;;;4973764;28;20096;-90
2023/05/28 11:24:53;;;;;;;10.68;3.20;;;21.00;91.00;;;;;;4974580;28;20437;-95
2023/05/28 11:27:21;;;;;;;;;;;21.00;91.50;;;;;;4975907;28;20053;-94
2023/05/28 11:29:46;;;;;;;8.00;2.70;;;20.90;91.70;;;;;;4974679;28;19921;-95
2023/05/28 11:32:12;;;;;;;8.00;2.60;;;21.00;92.30;;;;;;4962537;28;20053;-94
2023/05/28 11:34:38;;;;;;;9.55;2.60;;;21.10;92.70;;;;;;4975583;28;20104;-94
2023/05/28 11:37:06;;;;;;;8.82;3.00;;;21.10;92.80;;;;;;4975835;28;20041;-95
2023/05/28 11:39:35;;;;;;;10.23;2.85;;;21.10;92.80;;;;;;4969044;28;20073;-94
2023/05/28 11:42:01;;;;;;;7.32;2.40;;;21.00;92.70;;;;;;5004191;28;20045;-92
2023/05/28 11:44:27;;;;;;;12.63;2.97;;;21.00;93.00;;;;;;4984256;28;20615;-92
2023/05/28 11:46:55;;;;;;;13.85;3.35;;;21.00;93.20;;;;;;4995186;28;20049;-91
2023/05/28 11:49:21;;;;;;;9.38;2.95;;;21.00;93.30;;;;;;4992212;28;20049;-91
2023/05/28 11:51:49;;;;;;;8.35;2.85;;;21.10;93.70;;;;;;4995097;28;20477;-92
2023/05/28 11:54:16;;;;;;;11.07;3.15;;;21.00;94.70;;;;;;4995324;28;20052;-92
2023/05/28 11:56:42;;;;;;;10.48;3.05;;;20.80;95.30;;;;;;4996294;28;20073;-92
2023/05/28 11:59:09;;;;;;;9.40;2.78;;;20.90;95.50;;;;;;4995304;28;20632;-92
2023/05/28 12:01:35;;;;;;;13.48;3.53;;;20.90;96.10;;;;;;4995660;28;20121;-92
2023/05/28 12:04:05;;;;;;;13.70;3.28;;;20.90;96.60;;;;;;4992066;28;20152;-92
2023/05/28 12:06:48;;;;;;;12.10;3.17;;;20.80;96.70;;;;;;4991601;28;20108;-93
2023/05/28 12:09:15;;;;;;;10.65;3.22;;;20.70;97.00;;;;;;4989327;28;20051;-92
2023/05/28 12:11:41;;;;;;;9.80;3.33;;;20.60;97.00;;;;;;4995218;28;20041;-91
2023/05/28 12:14:15;;;;;;;14.18;3.45;;;20.50;97.70;;;;;;4995949;28;20383;-95
2023/05/28 12:16:47;;;;;;;12.55;2.95;;;20.50;98.10;;;;;;5015430;28;20383;-93
2023/05/28 12:19:15;;;;;;;49.05;4.78;;;20.50;98.60;;;;;;4994885;28;20038;-91
2023/05/28 12:21:43;;;;;;;11.55;3.72;;;20.40;99.40;;;;;;4988591;28;20088;-90
2023/05/28 12:24:14;;;;;;;14.80;3.65;;;20.40;99.80;;;;;;5005068;28;20382;-91
2023/05/28 12:26:41;;;;;;;15.85;3.17;;;20.30;99.90;;;;;;4993898;28;20041;-91
2023/05/28 12:29:08;;;;;;;12.93;3.38;;;20.20;99.90;;;;;;4991085;28;20040;-90
2023/05/28 12:31:34;;;;;;;11.55;2.80;;;20.10;99.90;;;;;;4994867;28;20099;-91
2023/05/28 12:33:59;;;;;;;14.00;3.58;;;20.00;99.90;;;;;;5017530;28;20041;-90
2023/05/28 12:36:25;;;;;;;14.48;3.50;;;20.00;99.90;;;;;;4998043;28;20081;-91
2023/05/28 12:38:51;;;;;;;14.00;3.60;;;20.10;99.90;;;;;;5014709;28;20037;-91
2023/05/28 12:41:17;;;;;;;11.95;3.13;;;20.10;99.90;;;;;;4994978;28;20091;-94
2023/05/28 12:43:44;;;;;;;11.40;3.25;;;20.10;99.90;;;;;;4996615;28;20049;-96
2023/05/28 12:46:14;;;;;;;12.55;2.80;;;20.00;99.90;;;;;;5000591;28;20057;-96
2023/05/28 12:48:40;;;;;;;12.57;2.90;;;20.00;99.90;;;;;;4997770;28;20249;-91
2023/05/28 12:51:06;;;;;;;9.93;3.03;;;19.90;99.90;;;;;;4989149;28;20049;-91
2023/05/28 12:53:31;;;;;;;10.23;2.92;;;19.80;99.90;;;;;;4995465;28;20072;-91
2023/05/28 12:55:57;;;;;;;11.60;3.10;;;19.70;99.90;;;;;;4986402;28;20139;-88
2023/05/28 12:58:23;;;;;;;14.70;3.13;;;19.70;99.90;;;;;;4991870;28;20520;-91
2023/05/28 13:00:49;;;;;;;13.30;3.00;;;19.80;99.90;;;;;;4987602;28;20054;-93
2023/05/28 13:03:15;;;;;;;9.80;2.97;;;19.70;99.90;;;;;;4995026;28;20056;-91
2023/05/28 13:05:41;;;;;;;12.18;3.00;;;19.60;99.90;;;;;;4995846;28;20058;-91
2023/05/28 13:08:07;;;;;;;18.15;3.13;;;19.50;99.90;;;;;;4997149;28;20497;-92
2023/05/28 13:10:33;;;;;;;13.82;4.05;;;19.60;99.90;;;;;;5001802;28;20045;-90
2023/05/28 13:12:58;;;;;;;11.75;3.38;;;19.50;99.90;;;;;;5010110;28;20062;-90
2023/05/28 13:15:24;;;;;;;16.02;2.88;;;19.50;99.90;;;;;;4995625;28;20037;-91
2023/05/28 13:17:50;;;;;;;17.50;3.97;;;19.50;99.90;;;;;;4996488;28;20088;-93
2023/05/28 13:20:16;;;;;;;14.38;3.45;;;19.40;99.90;;;;;;4994203;28;20052;-90
2023/05/28 13:22:45;;;;;;;14.05;3.35;;;19.40;99.90;;;;;;5016874;28;20053;-92
2023/05/28 13:25:11;;;;;;;14.25;3.65;;;19.40;99.90;;;;;;4992619;28;20116;-92
2023/05/28 13:27:37;;;;;;;13.50;3.33;;;19.40;99.90;;;;;;4990260;28;20416;-91
2023/05/28 13:30:03;;;;;;;11.80;3.33;;;19.50;99.90;;;;;;4992140;28;20041;-91
2023/05/28 13:32:30;;;;;;;9.73;2.90;;;19.40;99.90;;;;;;4996435;28;20081;-94
2023/05/28 13:34:55;;;;;;;12.93;3.20;;;19.40;99.90;;;;;;4993618;28;20109;-92
2023/05/28 13:37:21;;;;;;;15.73;4.00;;;19.40;99.90;;;;;;4993966;28;20132;-92